createdAt,value
2023-07-02T00:00:17.001Z,19.36
2023-07-02T00:02:47.683Z,19.36
2023-07-02T00:05:15.272Z,19.48
2023-07-02T00:07:42.913Z,19.51
2023-07-02T00:10:11.991Z,19.53
2023-07-02T00:12:39.569Z,19.55
2023-07-02T00:15:07.418Z,19.55
2023-07-02T00:17:35.322Z,19.59
2023-07-02T00:20:10.067Z,19.50
2023-07-02T00:22:37.952Z,19.50
2023-07-02T00:25:05.584Z,19.49
2023-07-02T00:27:33.333Z,19.46
2023-07-02T00:30:01.212Z,19.35
2023-07-02T00:32:28.838Z,19.32
2023-07-02T00:34:56.410Z,19.24
2023-07-02T00:37:24.235Z,19.26
2023-07-02T00:39:51.819Z,19.23
2023-07-02T00:42:19.498Z,19.24
2023-07-02T00:44:47.515Z,19.26
2023-07-02T00:47:15.110Z,19.30
2023-07-02T00:49:42.673Z,19.26
2023-07-02T00:52:11.317Z,19.22
2023-07-02T00:54:38.829Z,19.24
2023-07-02T00:57:07.172Z,19.26
2023-07-02T00:59:36.929Z,19.28
2023-07-02T01:02:06.341Z,19.30
2023-07-02T01:04:34.239Z,19.34
2023-07-02T01:07:02.676Z,19.36
2023-07-02T01:09:30.253Z,19.34
2023-07-02T01:12:05.064Z,19.26
2023-07-02T01:14:45.106Z,19.26
2023-07-02T01:17:13.051Z,19.19
2023-07-02T01:19:54.407Z,19.14
2023-07-02T01:22:24.267Z,19.19
2023-07-02T01:24:52.720Z,19.16
2023-07-02T01:27:21.633Z,19.13
2023-07-02T01:29:53.439Z,19.02
2023-07-02T01:32:22.111Z,19.03
2023-07-02T01:34:54.512Z,18.99
2023-07-02T01:37:22.884Z,19.01
2023-07-02T01:39:50.562Z,19.03
2023-07-02T01:42:20.330Z,19.01
2023-07-02T01:44:50.703Z,19.00
2023-07-02T01:47:19.032Z,19.00
2023-07-02T01:49:46.893Z,18.95
2023-07-02T01:52:14.830Z,18.88
2023-07-02T01:54:42.544Z,18.90
2023-07-02T01:57:10.451Z,18.90
2023-07-02T01:59:39.046Z,18.93
2023-07-02T02:02:06.566Z,18.96
2023-07-02T02:04:37.305Z,18.99
2023-07-02T02:07:04.880Z,19.02
2023-07-02T02:09:33.729Z,19.01
2023-07-02T02:12:01.790Z,19.04
2023-07-02T02:14:29.350Z,19.07
2023-07-02T02:16:58.556Z,19.05
2023-07-02T02:19:26.348Z,19.02
2023-07-02T02:21:54.058Z,19.00
2023-07-02T02:24:21.936Z,18.96
2023-07-02T02:26:49.503Z,18.96
2023-07-02T02:29:17.087Z,18.94
2023-07-02T02:31:45.705Z,18.91
2023-07-02T02:34:13.663Z,18.93
2023-07-02T02:36:41.640Z,18.91
2023-07-02T02:39:09.528Z,18.88
2023-07-02T02:41:37.161Z,18.90
2023-07-02T02:44:04.950Z,18.95
2023-07-02T02:46:32.841Z,19.00
2023-07-02T02:49:00.407Z,19.04
2023-07-02T02:51:28.019Z,19.08
2023-07-02T02:53:55.875Z,19.06
2023-07-02T02:56:23.464Z,19.09
2023-07-02T02:58:51.021Z,19.10
2023-07-02T03:01:19.140Z,19.10
2023-07-02T03:03:47.166Z,19.10
2023-07-02T03:06:16.545Z,19.12
2023-07-02T03:08:44.684Z,19.10
2023-07-02T03:11:12.233Z,19.10
2023-07-02T03:13:39.889Z,19.15
2023-07-02T03:16:08.084Z,19.12
2023-07-02T03:18:36.386Z,19.14
2023-07-02T03:21:03.938Z,19.14
2023-07-02T03:23:31.795Z,19.21
2023-07-02T03:25:59.337Z,19.24
2023-07-02T03:28:26.907Z,19.21
2023-07-02T03:30:54.790Z,19.27
2023-07-02T03:33:22.386Z,19.29
2023-07-02T03:35:49.995Z,19.30
2023-07-02T03:38:17.920Z,19.34
2023-07-02T03:40:45.823Z,19.37
2023-07-02T03:43:13.715Z,19.40
2023-07-02T03:45:41.523Z,19.44
2023-07-02T03:48:09.123Z,19.51
2023-07-02T03:50:36.764Z,19.56
2023-07-02T03:53:04.883Z,19.54
2023-07-02T03:55:32.437Z,19.55
2023-07-02T03:57:59.966Z,19.54
2023-07-02T04:00:27.848Z,19.52
2023-07-02T04:02:55.850Z,19.58
2023-07-02T04:05:23.528Z,19.57
2023-07-02T04:07:51.126Z,19.56
2023-07-02T04:10:19.039Z,19.62
2023-07-02T04:12:46.618Z,19.66
2023-07-02T04:15:14.154Z,19.69
2023-07-02T04:17:42.039Z,19.74
2023-07-02T04:20:11.280Z,19.80
2023-07-02T04:22:39.266Z,19.84
2023-07-02T04:25:17.440Z,19.87
2023-07-02T04:27:52.201Z,19.89
2023-07-02T04:30:20.277Z,19.90
2023-07-02T04:32:48.367Z,19.96
2023-07-02T04:35:15.977Z,20.01
2023-07-02T04:37:44.180Z,20.02
2023-07-02T04:40:12.134Z,20.03
2023-07-02T04:42:40.571Z,20.00
2023-07-02T04:45:09.632Z,19.98
2023-07-02T04:47:37.385Z,20.02
2023-07-02T04:50:07.001Z,20.02
2023-07-02T04:52:35.046Z,20.02
2023-07-02T04:55:04.289Z,20.01
2023-07-02T04:57:32.206Z,20.01
2023-07-02T05:00:00.045Z,20.04
2023-07-02T05:02:27.743Z,20.06
2023-07-02T05:04:55.566Z,20.06
2023-07-02T05:07:23.622Z,20.04
2023-07-02T05:09:53.454Z,20.04
2023-07-02T05:12:21.128Z,20.08
2023-07-02T05:14:48.991Z,20.11
2023-07-02T05:17:16.530Z,20.13
2023-07-02T05:19:44.124Z,20.12
2023-07-02T05:22:11.973Z,20.15
2023-07-02T05:24:41.772Z,20.20
2023-07-02T05:27:09.305Z,20.15
2023-07-02T05:29:37.170Z,20.20
2023-07-02T05:32:05.115Z,20.15
2023-07-02T05:34:33.729Z,20.20
2023-07-02T05:37:01.816Z,20.27
2023-07-02T05:39:29.444Z,20.31
2023-07-02T05:41:57.682Z,20.34
2023-07-02T05:44:25.496Z,20.33
2023-07-02T05:46:53.069Z,20.37
2023-07-02T05:49:20.626Z,20.38
2023-07-02T05:51:48.655Z,20.44
2023-07-02T05:54:16.180Z,20.50
2023-07-02T05:56:43.861Z,20.61
2023-07-02T05:59:12.539Z,20.71
2023-07-02T06:01:40.119Z,20.82
2023-07-02T06:04:08.123Z,20.94
2023-07-02T06:06:35.758Z,21.08
2023-07-02T06:09:04.080Z,21.30
2023-07-02T06:11:31.900Z,21.43
2023-07-02T06:13:59.527Z,21.60
2023-07-02T06:16:27.974Z,21.83
2023-07-02T06:18:56.022Z,22.09
2023-07-02T06:21:24.537Z,22.40
2023-07-02T06:23:52.103Z,22.71
2023-07-02T06:26:19.990Z,22.80
2023-07-02T06:28:47.634Z,22.92
2023-07-02T06:31:15.233Z,23.34
2023-07-02T06:33:43.346Z,23.45
2023-07-02T06:36:13.313Z,23.66
2023-07-02T06:38:41.958Z,23.78
2023-07-02T06:41:09.986Z,23.68
2023-07-02T06:43:37.711Z,23.67
2023-07-02T06:46:05.395Z,23.65
2023-07-02T06:48:34.057Z,23.65
2023-07-02T06:51:01.699Z,23.66
2023-07-02T06:53:29.311Z,23.64
2023-07-02T06:55:57.187Z,23.67
2023-07-02T06:58:24.809Z,23.71
2023-07-02T07:00:52.688Z,23.82
2023-07-02T07:03:20.680Z,23.84
2023-07-02T07:05:48.356Z,23.96
2023-07-02T07:08:15.913Z,24.22
2023-07-02T07:10:43.798Z,24.43
2023-07-02T07:13:11.956Z,24.40
2023-07-02T07:15:40.228Z,24.31
2023-07-02T07:18:10.075Z,24.21
2023-07-02T07:20:39.825Z,24.14
2023-07-02T07:23:07.373Z,24.50
2023-07-02T07:25:35.164Z,24.82
2023-07-02T07:28:02.749Z,25.20
2023-07-02T07:30:32.623Z,25.47
2023-07-02T07:33:01.460Z,25.81
2023-07-02T07:35:29.110Z,25.93
2023-07-02T07:37:56.763Z,26.16
2023-07-02T07:40:24.675Z,26.28
2023-07-02T07:42:52.203Z,26.53
2023-07-02T07:45:19.715Z,26.71
2023-07-02T07:47:47.780Z,26.69
2023-07-02T07:50:15.371Z,26.69
2023-07-02T07:52:44.132Z,26.73
2023-07-02T07:55:12.114Z,26.77
2023-07-02T07:57:39.837Z,26.75
2023-07-02T08:00:13.825Z,27.08
2023-07-02T08:02:45.055Z,27.20
2023-07-02T08:05:12.905Z,27.19
2023-07-02T08:07:43.844Z,27.30
2023-07-02T08:10:11.679Z,27.41
2023-07-02T08:12:39.641Z,27.31
2023-07-02T08:15:07.788Z,27.18
2023-07-02T08:17:35.752Z,27.01
2023-07-02T08:20:05.534Z,26.96
2023-07-02T08:22:33.119Z,26.79
2023-07-02T08:25:00.649Z,26.64
2023-07-02T08:27:28.532Z,26.53
2023-07-02T08:29:56.127Z,26.37
2023-07-02T08:32:24.803Z,26.11
2023-07-02T08:34:53.695Z,26.02
2023-07-02T08:37:22.077Z,25.96
2023-07-02T08:39:52.622Z,25.87
2023-07-02T08:42:20.832Z,25.75
2023-07-02T08:44:49.197Z,25.85
2023-07-02T08:47:17.010Z,25.69
2023-07-02T08:49:49.725Z,25.60
2023-07-02T08:52:17.430Z,25.61
2023-07-02T08:54:45.307Z,25.56
2023-07-02T08:57:12.825Z,25.36
2023-07-02T08:59:40.426Z,25.21
2023-07-02T09:02:08.315Z,25.15
2023-07-02T09:04:35.995Z,25.08
2023-07-02T09:07:07.854Z,25.16
2023-07-02T09:09:49.240Z,25.10
2023-07-02T09:12:27.238Z,25.08
2023-07-02T09:15:07.615Z,25.06
2023-07-02T09:17:37.619Z,25.15
2023-07-02T09:20:10.094Z,25.32
2023-07-02T09:22:38.524Z,25.58
2023-07-02T09:25:06.724Z,25.58
2023-07-02T09:27:43.151Z,25.66
2023-07-02T09:30:19.320Z,25.82
2023-07-02T09:32:47.556Z,25.92
2023-07-02T09:35:15.806Z,26.03
2023-07-02T09:37:45.144Z,26.14
2023-07-02T09:40:13.612Z,26.17
2023-07-02T09:42:43.632Z,26.19
2023-07-02T09:45:12.092Z,26.38
2023-07-02T09:47:47.613Z,26.50
2023-07-02T09:50:17.301Z,26.79
2023-07-02T09:52:47.399Z,27.11
2023-07-02T09:55:16.264Z,27.44
2023-07-02T09:57:47.540Z,27.77
2023-07-02T10:00:16.553Z,28.06
2023-07-02T10:02:50.670Z,28.22
2023-07-02T10:05:47.479Z,28.36
2023-07-02T10:08:22.692Z,28.14
2023-07-02T10:10:50.803Z,28.37
2023-07-02T10:13:29.261Z,28.38
2023-07-02T10:16:06.824Z,28.75
2023-07-02T10:18:35.645Z,28.61
2023-07-02T10:21:15.918Z,28.82
2023-07-02T10:23:43.862Z,28.60
2023-07-02T10:26:18.389Z,28.63
2023-07-02T10:29:00.176Z,28.37
2023-07-02T10:31:27.875Z,28.15
2023-07-02T10:33:56.508Z,28.48
2023-07-02T10:36:25.856Z,28.39
2023-07-02T10:38:53.536Z,28.17
2023-07-02T10:41:30.638Z,27.98
2023-07-02T10:44:18.447Z,28.43
2023-07-02T10:46:50.392Z,28.85
2023-07-02T10:49:19.303Z,28.83
2023-07-02T10:51:58.374Z,29.05
2023-07-02T10:54:25.929Z,29.25
2023-07-02T10:56:59.982Z,29.21
2023-07-02T10:59:27.518Z,29.39
2023-07-02T11:01:57.056Z,29.51
2023-07-02T11:04:25.057Z,29.51
2023-07-02T11:06:52.679Z,29.65
2023-07-02T11:09:22.016Z,29.76
2023-07-02T11:11:57.401Z,29.83
2023-07-02T11:14:35.419Z,29.84
2023-07-02T11:17:07.727Z,29.54
2023-07-02T11:19:36.373Z,29.81
2023-07-02T11:22:04.319Z,29.77
2023-07-02T11:24:36.707Z,29.77
2023-07-02T11:27:08.482Z,29.81
2023-07-02T11:29:37.178Z,29.91
2023-07-02T11:32:12.630Z,30.01
2023-07-02T11:34:41.097Z,30.05
2023-07-02T11:37:09.034Z,30.16
2023-07-02T11:39:36.592Z,30.23
2023-07-02T11:42:04.284Z,30.23
2023-07-02T11:44:32.132Z,30.33
2023-07-02T11:46:59.818Z,30.18
2023-07-02T11:49:27.463Z,30.06
2023-07-02T11:51:55.401Z,30.11
2023-07-02T11:54:23.024Z,30.33
2023-07-02T11:56:50.665Z,30.30
2023-07-02T11:59:19.307Z,30.15
2023-07-02T12:01:46.913Z,30.04
2023-07-02T12:04:15.511Z,30.09
2023-07-02T12:06:43.205Z,30.21
2023-07-02T12:09:11.167Z,30.31
2023-07-02T12:11:39.996Z,30.34
2023-07-02T12:14:07.547Z,30.31
2023-07-02T12:16:35.170Z,30.06
2023-07-02T12:19:03.092Z,30.07
2023-07-02T12:21:30.621Z,29.93
2023-07-02T12:23:58.183Z,29.87
2023-07-02T12:26:26.100Z,29.95
2023-07-02T12:28:53.646Z,30.07
2023-07-02T12:31:21.235Z,30.16
2023-07-02T12:33:49.125Z,30.37
2023-07-02T12:36:16.683Z,30.23
2023-07-02T12:38:44.294Z,30.28
2023-07-02T12:41:12.142Z,30.19
2023-07-02T12:43:39.713Z,30.30
2023-07-02T12:46:08.112Z,30.21
2023-07-02T12:48:36.046Z,30.03
2023-07-02T12:51:03.790Z,30.14
2023-07-02T12:53:31.403Z,30.25
2023-07-02T12:55:59.235Z,30.33
2023-07-02T12:58:26.747Z,30.30
2023-07-02T13:00:56.227Z,30.17
2023-07-02T13:03:27.143Z,30.28
2023-07-02T13:05:54.801Z,30.21
2023-07-02T13:08:22.608Z,30.36
2023-07-02T13:10:50.486Z,30.12
2023-07-02T13:13:23.257Z,29.75
2023-07-02T13:15:52.219Z,29.77
2023-07-02T13:18:21.453Z,29.77
2023-07-02T13:20:49.026Z,29.82
2023-07-02T13:23:16.876Z,29.91
2023-07-02T13:25:44.389Z,29.86
2023-07-02T13:28:11.988Z,29.95
2023-07-02T13:30:39.862Z,30.05
2023-07-02T13:33:07.432Z,30.16
2023-07-02T13:35:35.118Z,30.32
2023-07-02T13:38:05.185Z,30.42
2023-07-02T13:40:32.808Z,30.35
2023-07-02T13:43:00.379Z,30.33
2023-07-02T13:45:28.189Z,30.43
2023-07-02T13:47:55.771Z,30.51
2023-07-02T13:50:23.398Z,30.40
2023-07-02T13:52:51.270Z,30.38
2023-07-02T13:55:18.875Z,30.28
2023-07-02T13:57:46.454Z,30.32
2023-07-02T14:00:14.823Z,30.09
2023-07-02T14:02:42.765Z,30.33
2023-07-02T14:05:10.597Z,30.23
2023-07-02T14:07:38.132Z,30.14
2023-07-02T14:10:06.598Z,30.10
2023-07-02T14:12:34.119Z,30.16
2023-07-02T14:15:01.704Z,30.14
2023-07-02T14:17:29.571Z,30.03
2023-07-02T14:19:57.124Z,30.00
2023-07-02T14:22:24.889Z,29.93
2023-07-02T14:24:52.814Z,29.92
2023-07-02T14:27:20.364Z,29.84
2023-07-02T14:29:48.674Z,29.84
2023-07-02T14:32:17.316Z,29.73
2023-07-02T14:34:45.164Z,29.76
2023-07-02T14:37:12.973Z,29.86
2023-07-02T14:39:43.760Z,29.86
2023-07-02T14:42:15.672Z,29.76
2023-07-02T14:44:43.551Z,29.69
2023-07-02T14:47:11.129Z,29.69
2023-07-02T14:49:38.859Z,29.73
2023-07-02T14:52:07.123Z,29.79
2023-07-02T14:54:35.398Z,29.55
2023-07-02T14:57:03.038Z,29.28
2023-07-02T14:59:30.927Z,29.29
2023-07-02T15:01:58.505Z,29.26
2023-07-02T15:04:26.238Z,29.30
2023-07-02T15:06:54.173Z,29.32
2023-07-02T15:09:21.828Z,29.29
2023-07-02T15:11:49.426Z,29.32
2023-07-02T15:14:17.295Z,29.28
2023-07-02T15:16:44.918Z,29.25
2023-07-02T15:19:13.848Z,29.10
2023-07-02T15:21:41.674Z,28.84
2023-07-02T15:24:11.356Z,28.82
2023-07-02T15:26:40.087Z,28.84
2023-07-02T15:29:08.041Z,28.81
2023-07-02T15:31:37.663Z,28.78
2023-07-02T15:34:05.292Z,28.81
2023-07-02T15:36:36.826Z,28.82
2023-07-02T15:39:04.984Z,28.81
2023-07-02T15:41:33.189Z,28.73
2023-07-02T15:44:04.374Z,28.62
2023-07-02T15:46:32.218Z,28.51
2023-07-02T15:49:03.477Z,28.56
2023-07-02T15:51:37.797Z,28.48
2023-07-02T15:54:07.910Z,28.51
2023-07-02T15:56:36.130Z,28.53
2023-07-02T15:59:06.489Z,28.48
2023-07-02T16:01:35.702Z,28.45
2023-07-02T16:04:05.619Z,28.26
2023-07-02T16:06:35.297Z,28.26
2023-07-02T16:09:05.266Z,28.21
2023-07-02T16:11:35.684Z,28.22
2023-07-02T16:14:08.932Z,28.23
2023-07-02T16:16:38.921Z,28.18
2023-07-02T16:19:08.445Z,28.12
2023-07-02T16:21:38.192Z,28.04
2023-07-02T16:24:06.036Z,27.94
2023-07-02T16:26:33.948Z,27.93
2023-07-02T16:29:01.569Z,27.90
2023-07-02T16:31:29.189Z,27.86
2023-07-02T16:33:57.065Z,27.80
2023-07-02T16:36:24.586Z,27.72
2023-07-02T16:38:52.165Z,27.73
2023-07-02T16:41:20.108Z,27.64
2023-07-02T16:43:47.728Z,27.61
2023-07-02T16:46:15.373Z,27.61
2023-07-02T16:48:43.335Z,27.54
2023-07-02T16:51:10.873Z,27.50
2023-07-02T16:53:38.508Z,27.49
2023-07-02T16:56:08.132Z,27.45
2023-07-02T16:58:35.723Z,27.35
2023-07-02T17:01:08.999Z,27.34
2023-07-02T17:03:37.181Z,27.30
2023-07-02T17:06:06.979Z,27.20
2023-07-02T17:08:37.639Z,27.13
2023-07-02T17:11:07.154Z,27.07
2023-07-02T17:13:35.258Z,27.03
2023-07-02T17:16:05.062Z,27.00
2023-07-02T17:18:34.323Z,26.88
2023-07-02T17:21:02.155Z,26.81
2023-07-02T17:23:29.829Z,26.78
2023-07-02T17:26:07.526Z,26.72
2023-07-02T17:28:35.398Z,26.70
2023-07-02T17:31:03.642Z,26.62
2023-07-02T17:33:31.319Z,26.54
2023-07-02T17:35:58.901Z,26.50
2023-07-02T17:38:26.802Z,26.44
2023-07-02T17:40:54.335Z,26.44
2023-07-02T17:43:22.013Z,26.39
2023-07-02T17:45:54.712Z,26.34
2023-07-02T17:48:25.000Z,26.28
2023-07-02T17:51:00.502Z,26.16
2023-07-02T17:53:30.370Z,26.14
2023-07-02T17:55:58.365Z,26.05
2023-07-02T17:58:25.957Z,25.93
2023-07-02T18:00:53.750Z,25.83
2023-07-02T18:03:23.040Z,25.72
2023-07-02T18:05:51.210Z,25.61
2023-07-02T18:08:19.247Z,25.45
2023-07-02T18:10:51.230Z,25.31
2023-07-02T18:13:21.358Z,25.15
2023-07-02T18:15:51.979Z,24.98
2023-07-02T18:18:21.370Z,24.78
2023-07-02T18:20:50.627Z,24.69
2023-07-02T18:23:19.059Z,24.59
2023-07-02T18:25:46.749Z,24.51
2023-07-02T18:28:17.900Z,24.39
2023-07-02T18:30:47.172Z,24.26
2023-07-02T18:33:15.950Z,24.13
2023-07-02T18:35:43.707Z,24.05
2023-07-02T18:38:11.240Z,24.00
2023-07-02T18:40:39.766Z,23.97
2023-07-02T18:43:08.042Z,23.90
2023-07-02T18:45:35.804Z,23.90
2023-07-02T18:48:04.760Z,23.86
2023-07-02T18:50:32.488Z,23.83
2023-07-02T18:53:00.764Z,23.76
2023-07-02T18:55:28.672Z,23.68
2023-07-02T18:57:56.287Z,23.55
2023-07-02T19:00:23.908Z,23.51
2023-07-02T19:02:51.859Z,23.51
2023-07-02T19:05:20.950Z,23.49
2023-07-02T19:07:49.507Z,23.51
2023-07-02T19:10:17.584Z,23.53
2023-07-02T19:12:47.100Z,23.54
2023-07-02T19:15:14.671Z,23.42
2023-07-02T19:17:44.945Z,23.34
2023-07-02T19:20:13.057Z,23.21
2023-07-02T19:22:40.606Z,23.10
2023-07-02T19:25:11.587Z,22.97
2023-07-02T19:27:41.066Z,22.81
2023-07-02T19:30:09.502Z,22.72
2023-07-02T19:32:38.299Z,22.64
2023-07-02T19:35:08.102Z,22.62
2023-07-02T19:37:36.691Z,22.60
2023-07-02T19:40:06.128Z,22.56
2023-07-02T19:42:33.970Z,22.50
2023-07-02T19:45:02.249Z,22.50
2023-07-02T19:47:31.410Z,22.51
2023-07-02T19:50:00.814Z,22.45
2023-07-02T19:55:01.168Z,22.34
2023-07-02T19:57:28.970Z,22.29
2023-07-02T19:59:56.729Z,22.25
2023-07-02T20:02:24.506Z,22.12
2023-07-02T20:05:01.734Z,21.92
2023-07-02T20:07:29.824Z,21.86
2023-07-02T20:09:57.938Z,21.82
2023-07-02T20:12:29.503Z,21.73
2023-07-02T20:14:58.850Z,21.70
2023-07-02T20:17:29.660Z,21.72
2023-07-02T20:19:59.879Z,21.74
2023-07-02T20:22:28.188Z,21.72
2023-07-02T20:25:03.885Z,21.67
2023-07-02T20:27:36.004Z,21.62
2023-07-02T20:30:04.152Z,21.47
2023-07-02T20:32:31.812Z,21.38
2023-07-02T20:34:59.829Z,21.34
2023-07-02T20:37:27.711Z,21.32
2023-07-02T20:39:55.406Z,21.36
2023-07-02T20:42:23.280Z,21.39
2023-07-02T20:44:51.204Z,21.44
2023-07-02T20:47:22.308Z,21.48
2023-07-02T20:49:51.335Z,21.54
2023-07-02T20:52:25.138Z,21.58
2023-07-02T20:54:54.599Z,21.64
2023-07-02T20:57:23.277Z,21.64
2023-07-02T20:59:51.723Z,21.71
2023-07-02T21:02:20.704Z,21.75
2023-07-02T21:04:50.171Z,21.80
2023-07-02T21:07:17.857Z,21.82
2023-07-02T21:09:45.762Z,21.84
2023-07-02T21:12:13.358Z,21.83
2023-07-02T21:14:40.968Z,21.78
2023-07-02T21:17:11.806Z,21.77
2023-07-02T21:19:39.368Z,21.80
2023-07-02T21:22:06.909Z,21.80
2023-07-02T21:24:35.716Z,21.78
2023-07-02T21:27:03.724Z,21.76
2023-07-02T21:29:31.596Z,21.78
2023-07-02T21:31:59.510Z,21.78
2023-07-02T21:34:27.069Z,21.70
2023-07-02T21:36:54.669Z,21.69
2023-07-02T21:39:22.541Z,21.61
2023-07-02T21:41:50.116Z,21.61
2023-07-02T21:44:19.390Z,21.59
2023-07-02T21:46:47.348Z,21.59
2023-07-02T21:49:14.991Z,21.58
2023-07-02T21:51:42.536Z,21.62
2023-07-02T21:54:10.360Z,21.63
2023-07-02T21:56:38.296Z,21.67
2023-07-02T21:59:05.837Z,21.71
2023-07-02T22:01:33.756Z,21.71
2023-07-02T22:04:01.613Z,21.74
2023-07-02T22:06:29.121Z,21.78
2023-07-02T22:08:56.687Z,21.81
2023-07-02T22:11:26.007Z,21.83
2023-07-02T22:13:53.618Z,21.82
2023-07-02T22:16:21.297Z,21.83
2023-07-02T22:18:49.241Z,21.82
2023-07-02T22:21:17.873Z,21.80
2023-07-02T22:23:49.186Z,21.88
2023-07-02T22:26:17.151Z,21.90
2023-07-02T22:28:44.833Z,21.87
2023-07-02T22:31:12.408Z,21.86
2023-07-02T22:33:40.390Z,21.89
2023-07-02T22:36:08.905Z,21.82
2023-07-02T22:38:36.829Z,21.77
2023-07-02T22:41:04.653Z,21.80
2023-07-02T22:43:32.168Z,21.80
2023-07-02T22:45:59.756Z,21.81
2023-07-02T22:48:27.637Z,21.70
2023-07-02T22:50:56.318Z,21.61
2023-07-02T22:53:25.203Z,21.64
2023-07-02T22:55:53.184Z,21.64
2023-07-02T22:58:20.929Z,21.61
2023-07-02T23:00:48.447Z,21.62
2023-07-02T23:03:16.403Z,21.59
2023-07-02T23:05:44.082Z,21.62
2023-07-02T23:08:13.188Z,21.58
2023-07-02T23:10:40.985Z,21.57
2023-07-02T23:13:08.666Z,21.58
2023-07-02T23:15:36.276Z,21.56
2023-07-02T23:18:04.167Z,21.55
2023-07-02T23:20:31.719Z,21.56
2023-07-02T23:23:02.795Z,21.59
2023-07-02T23:25:31.311Z,21.59
2023-07-02T23:28:04.195Z,21.53
2023-07-02T23:30:35.155Z,21.55
2023-07-02T23:33:11.045Z,21.51
2023-07-02T23:35:40.036Z,21.53
2023-07-02T23:38:08.738Z,21.52
2023-07-02T23:40:37.015Z,21.52
2023-07-02T23:43:05.341Z,21.54
2023-07-02T23:45:33.017Z,21.51
2023-07-02T23:48:00.625Z,21.50
2023-07-02T23:50:28.604Z,21.43
2023-07-02T23:52:56.298Z,21.47
2023-07-02T23:55:23.880Z,21.44
2023-07-02T23:57:51.804Z,21.47
